sensor_id;sensor_type;location;lat;lon;timestamp;P1;durP1;ratioP1;P2;durP2;ratioP2
8909;SDS011;4490;49.072;8.804;2023-03-24T00:01:22;3.10;;;2.50;;
8909;SDS011;4490;49.072;8.804;2023-03-24T00:03:47;2.93;;;2.43;;
8909;SDS011;4490;49.072;8.804;2023-03-24T00:06:16;3.73;;;2.90;;
8909;SDS011;4490;49.072;8.804;2023-03-24T00:08:43;3.80;;;3.40;;
8909;SDS011;4490;49.072;8.804;2023-03-24T00:11:12;4.23;;;2.90;;
8909;SDS011;4490;49.072;8.804;2023-03-24T00:13:39;4.00;;;3.23;;
8909;SDS011;4490;49.072;8.804;2023-03-24T00:16:06;3.83;;;3.20;;
8909;SDS011;4490;49.072;8.804;2023-03-24T00:18:33;4.23;;;3.20;;
8909;SDS011;4490;49.072;8.804;2023-03-24T00:20:59;3.73;;;3.10;;
8909;SDS011;4490;49.072;8.804;2023-03-24T00:23:25;4.80;;;3.07;;
8909;SDS011;4490;49.072;8.804;2023-03-24T00:28:33;3.17;;;2.73;;
8909;SDS011;4490;49.072;8.804;2023-03-24T00:31:00;2.60;;;2.40;;
8909;SDS011;4490;49.072;8.804;2023-03-24T00:33:28;3.13;;;2.60;;
8909;SDS011;4490;49.072;8.804;2023-03-24T00:35:59;2.50;;;2.30;;
8909;SDS011;4490;49.072;8.804;2023-03-24T00:38:29;3.27;;;2.50;;
8909;SDS011;4490;49.072;8.804;2023-03-24T00:40:58;3.87;;;2.60;;
8909;SDS011;4490;49.072;8.804;2023-03-24T00:43:24;2.83;;;2.33;;
8909;SDS011;4490;49.072;8.804;2023-03-24T00:45:50;3.13;;;2.53;;
8909;SDS011;4490;49.072;8.804;2023-03-24T00:48:26;4.17;;;2.50;;
8909;SDS011;4490;49.072;8.804;2023-03-24T00:50:52;2.80;;;2.60;;
8909;SDS011;4490;49.072;8.804;2023-03-24T00:53:18;2.50;;;2.30;;
8909;SDS011;4490;49.072;8.804;2023-03-24T00:55:47;3.27;;;2.60;;
8909;SDS011;4490;49.072;8.804;2023-03-24T00:58:14;4.20;;;2.63;;
8909;SDS011;4490;49.072;8.804;2023-03-24T01:00:52;3.70;;;2.47;;
8909;SDS011;4490;49.072;8.804;2023-03-24T01:03:21;3.87;;;2.57;;
8909;SDS011;4490;49.072;8.804;2023-03-24T01:05:51;4.03;;;2.60;;
8909;SDS011;4490;49.072;8.804;2023-03-24T01:08:25;2.70;;;2.50;;
8909;SDS011;4490;49.072;8.804;2023-03-24T01:10:52;2.90;;;2.60;;
8909;SDS011;4490;49.072;8.804;2023-03-24T01:13:19;4.73;;;2.57;;
8909;SDS011;4490;49.072;8.804;2023-03-24T01:15:49;3.73;;;2.67;;
8909;SDS011;4490;49.072;8.804;2023-03-24T01:18:16;3.50;;;2.47;;
8909;SDS011;4490;49.072;8.804;2023-03-24T01:20:42;3.53;;;2.60;;
8909;SDS011;4490;49.072;8.804;2023-03-24T01:23:11;3.47;;;3.00;;
8909;SDS011;4490;49.072;8.804;2023-03-24T01:25:38;3.30;;;2.93;;
8909;SDS011;4490;49.072;8.804;2023-03-24T01:28:06;3.03;;;2.80;;
8909;SDS011;4490;49.072;8.804;2023-03-24T01:30:32;4.57;;;2.60;;
8909;SDS011;4490;49.072;8.804;2023-03-24T01:32:58;3.57;;;2.70;;
8909;SDS011;4490;49.072;8.804;2023-03-24T01:35:24;2.80;;;2.60;;
8909;SDS011;4490;49.072;8.804;2023-03-24T01:37:50;6.10;;;3.63;;
8909;SDS011;4490;49.072;8.804;2023-03-24T01:40:17;4.33;;;2.93;;
8909;SDS011;4490;49.072;8.804;2023-03-24T01:42:45;3.37;;;2.87;;
8909;SDS011;4490;49.072;8.804;2023-03-24T01:47:58;2.80;;;2.60;;
8909;SDS011;4490;49.072;8.804;2023-03-24T01:50:24;2.63;;;2.43;;
8909;SDS011;4490;49.072;8.804;2023-03-24T01:52:50;2.97;;;2.67;;
8909;SDS011;4490;49.072;8.804;2023-03-24T01:55:16;3.07;;;2.67;;
8909;SDS011;4490;49.072;8.804;2023-03-24T01:57:48;3.33;;;2.90;;
8909;SDS011;4490;49.072;8.804;2023-03-24T02:00:19;4.50;;;2.87;;
8909;SDS011;4490;49.072;8.804;2023-03-24T02:02:50;4.10;;;2.93;;
8909;SDS011;4490;49.072;8.804;2023-03-24T02:05:23;3.80;;;2.67;;
8909;SDS011;4490;49.072;8.804;2023-03-24T02:07:56;4.93;;;2.97;;
8909;SDS011;4490;49.072;8.804;2023-03-24T02:10:23;3.43;;;3.13;;
8909;SDS011;4490;49.072;8.804;2023-03-24T02:12:49;3.20;;;2.90;;
8909;SDS011;4490;49.072;8.804;2023-03-24T02:15:16;5.03;;;2.90;;
8909;SDS011;4490;49.072;8.804;2023-03-24T02:50:42;3.20;;;2.90;;
8909;SDS011;4490;49.072;8.804;2023-03-24T02:53:19;3.33;;;3.03;;
8909;SDS011;4490;49.072;8.804;2023-03-24T02:56:02;3.37;;;2.77;;
8909;SDS011;4490;49.072;8.804;2023-03-24T02:58:46;4.17;;;3.17;;
8909;SDS011;4490;49.072;8.804;2023-03-24T03:01:19;5.50;;;3.13;;
8909;SDS011;4490;49.072;8.804;2023-03-24T03:03:56;3.07;;;2.77;;
8909;SDS011;4490;49.072;8.804;2023-03-24T03:06:31;3.23;;;2.93;;
8909;SDS011;4490;49.072;8.804;2023-03-24T03:09:02;3.00;;;2.70;;
8909;SDS011;4490;49.072;8.804;2023-03-24T03:11:30;2.90;;;2.63;;
8909;SDS011;4490;49.072;8.804;2023-03-24T03:13:58;3.47;;;2.50;;
8909;SDS011;4490;49.072;8.804;2023-03-24T03:16:34;2.77;;;2.57;;
8909;SDS011;4490;49.072;8.804;2023-03-24T03:20:07;2.60;;;2.40;;
8909;SDS011;4490;49.072;8.804;2023-03-24T03:22:23;3.97;;;2.60;;
8909;SDS011;4490;49.072;8.804;2023-03-24T03:24:53;3.30;;;2.70;;
8909;SDS011;4490;49.072;8.804;2023-03-24T03:30:00;2.87;;;2.40;;
8909;SDS011;4490;49.072;8.804;2023-03-24T03:32:30;3.70;;;2.40;;
8909;SDS011;4490;49.072;8.804;2023-03-24T03:35:05;2.40;;;2.20;;
8909;SDS011;4490;49.072;8.804;2023-03-24T03:38:11;2.50;;;2.30;;
8909;SDS011;4490;49.072;8.804;2023-03-24T03:40:50;3.77;;;2.50;;
8909;SDS011;4490;49.072;8.804;2023-03-24T03:43:17;2.53;;;2.33;;
8909;SDS011;4490;49.072;8.804;2023-03-24T03:45:42;3.63;;;2.63;;
8909;SDS011;4490;49.072;8.804;2023-03-24T03:48:09;2.80;;;2.30;;
8909;SDS011;4490;49.072;8.804;2023-03-24T03:50:35;3.63;;;3.00;;
8909;SDS011;4490;49.072;8.804;2023-03-24T03:53:03;4.37;;;2.90;;
8909;SDS011;4490;49.072;8.804;2023-03-24T03:55:30;3.33;;;2.90;;
8909;SDS011;4490;49.072;8.804;2023-03-24T03:57:56;3.47;;;3.10;;
8909;SDS011;4490;49.072;8.804;2023-03-24T04:00:22;3.10;;;2.70;;
8909;SDS011;4490;49.072;8.804;2023-03-24T04:05:46;3.03;;;2.70;;
8909;SDS011;4490;49.072;8.804;2023-03-24T04:08:27;2.67;;;2.47;;
8909;SDS011;4490;49.072;8.804;2023-03-24T04:14:29;2.90;;;2.40;;
8909;SDS011;4490;49.072;8.804;2023-03-24T04:20:04;4.03;;;2.67;;
8909;SDS011;4490;49.072;8.804;2023-03-24T04:28:42;3.67;;;2.80;;
8909;SDS011;4490;49.072;8.804;2023-03-24T04:31:33;3.37;;;2.90;;
8909;SDS011;4490;49.072;8.804;2023-03-24T04:34:18;3.63;;;3.13;;
8909;SDS011;4490;49.072;8.804;2023-03-24T04:39:28;5.23;;;3.20;;
8909;SDS011;4490;49.072;8.804;2023-03-24T04:41:56;3.40;;;3.10;;
8909;SDS011;4490;49.072;8.804;2023-03-24T04:44:26;4.90;;;3.30;;
8909;SDS011;4490;49.072;8.804;2023-03-24T04:46:55;3.43;;;3.13;;
8909;SDS011;4490;49.072;8.804;2023-03-24T04:49:22;4.63;;;3.60;;
8909;SDS011;4490;49.072;8.804;2023-03-24T04:51:51;4.80;;;3.80;;
8909;SDS011;4490;49.072;8.804;2023-03-24T04:54:21;3.93;;;3.50;;
8909;SDS011;4490;49.072;8.804;2023-03-24T04:56:53;4.10;;;3.40;;
8909;SDS011;4490;49.072;8.804;2023-03-24T04:59:22;4.97;;;4.00;;
8909;SDS011;4490;49.072;8.804;2023-03-24T05:01:47;4.57;;;4.07;;
8909;SDS011;4490;49.072;8.804;2023-03-24T05:04:18;4.97;;;3.93;;
8909;SDS011;4490;49.072;8.804;2023-03-24T05:06:46;5.67;;;4.00;;
8909;SDS011;4490;49.072;8.804;2023-03-24T05:09:13;4.37;;;3.93;;
8909;SDS011;4490;49.072;8.804;2023-03-24T05:11:45;5.10;;;4.60;;
8909;SDS011;4490;49.072;8.804;2023-03-24T05:14:11;5.73;;;5.13;;
8909;SDS011;4490;49.072;8.804;2023-03-24T05:16:37;5.27;;;4.77;;
8909;SDS011;4490;49.072;8.804;2023-03-24T05:19:03;6.37;;;5.47;;
8909;SDS011;4490;49.072;8.804;2023-03-24T05:21:29;6.20;;;5.60;;
8909;SDS011;4490;49.072;8.804;2023-03-24T05:23:55;6.00;;;5.00;;
8909;SDS011;4490;49.072;8.804;2023-03-24T05:26:21;8.17;;;5.60;;
8909;SDS011;4490;49.072;8.804;2023-03-24T05:28:47;5.40;;;4.13;;
8909;SDS011;4490;49.072;8.804;2023-03-24T05:31:12;6.50;;;4.83;;
8909;SDS011;4490;49.072;8.804;2023-03-24T05:33:38;5.20;;;4.70;;
8909;SDS011;4490;49.072;8.804;2023-03-24T05:36:04;5.20;;;4.70;;
8909;SDS011;4490;49.072;8.804;2023-03-24T05:38:30;7.33;;;4.93;;
8909;SDS011;4490;49.072;8.804;2023-03-24T05:40:59;5.33;;;4.73;;
8909;SDS011;4490;49.072;8.804;2023-03-24T05:43:25;5.50;;;5.00;;
8909;SDS011;4490;49.072;8.804;2023-03-24T05:45:51;6.37;;;4.70;;
8909;SDS011;4490;49.072;8.804;2023-03-24T05:48:17;6.30;;;4.93;;
8909;SDS011;4490;49.072;8.804;2023-03-24T05:50:42;6.10;;;4.77;;
8909;SDS011;4490;49.072;8.804;2023-03-24T05:53:08;5.00;;;4.37;;
8909;SDS011;4490;49.072;8.804;2023-03-24T05:55:34;7.67;;;5.37;;
8909;SDS011;4490;49.072;8.804;2023-03-24T05:58:00;6.43;;;4.73;;
8909;SDS011;4490;49.072;8.804;2023-03-24T06:00:27;6.17;;;5.00;;
8909;SDS011;4490;49.072;8.804;2023-03-24T06:02:56;5.90;;;4.90;;
8909;SDS011;4490;49.072;8.804;2023-03-24T06:05:22;6.23;;;5.17;;
8909;SDS011;4490;49.072;8.804;2023-03-24T06:07:48;7.90;;;5.73;;
8909;SDS011;4490;49.072;8.804;2023-03-24T06:10:13;5.83;;;5.27;;
8909;SDS011;4490;49.072;8.804;2023-03-24T06:12:42;7.37;;;5.43;;
8909;SDS011;4490;49.072;8.804;2023-03-24T06:15:09;7.83;;;5.10;;
8909;SDS011;4490;49.072;8.804;2023-03-24T06:17:35;6.43;;;5.37;;
8909;SDS011;4490;49.072;8.804;2023-03-24T06:20:01;6.63;;;5.27;;
8909;SDS011;4490;49.072;8.804;2023-03-24T06:22:30;7.63;;;5.93;;
8909;SDS011;4490;49.072;8.804;2023-03-24T06:24:57;6.67;;;5.83;;
8909;SDS011;4490;49.072;8.804;2023-03-24T06:27:23;6.17;;;5.50;;
8909;SDS011;4490;49.072;8.804;2023-03-24T06:29:50;6.43;;;5.40;;
8909;SDS011;4490;49.072;8.804;2023-03-24T06:32:17;7.27;;;5.90;;
8909;SDS011;4490;49.072;8.804;2023-03-24T06:34:44;7.70;;;6.10;;
8909;SDS011;4490;49.072;8.804;2023-03-24T06:37:10;7.13;;;5.87;;
8909;SDS011;4490;49.072;8.804;2023-03-24T06:39:35;7.13;;;6.00;;
8909;SDS011;4490;49.072;8.804;2023-03-24T06:42:01;8.37;;;6.00;;
8909;SDS011;4490;49.072;8.804;2023-03-24T06:44:27;6.17;;;5.53;;
8909;SDS011;4490;49.072;8.804;2023-03-24T06:46:53;5.87;;;5.30;;
8909;SDS011;4490;49.072;8.804;2023-03-24T06:49:19;6.63;;;5.33;;
8909;SDS011;4490;49.072;8.804;2023-03-24T06:51:44;7.50;;;5.83;;
8909;SDS011;4490;49.072;8.804;2023-03-24T06:54:10;6.10;;;5.50;;
8909;SDS011;4490;49.072;8.804;2023-03-24T06:56:36;8.83;;;5.97;;
8909;SDS011;4490;49.072;8.804;2023-03-24T06:59:02;6.90;;;5.37;;
8909;SDS011;4490;49.072;8.804;2023-03-24T07:01:27;7.93;;;5.10;;
8909;SDS011;4490;49.072;8.804;2023-03-24T07:03:53;7.00;;;5.73;;
8909;SDS011;4490;49.072;8.804;2023-03-24T07:06:20;6.60;;;6.00;;
8909;SDS011;4490;49.072;8.804;2023-03-24T07:08:46;5.63;;;4.60;;
8909;SDS011;4490;49.072;8.804;2023-03-24T07:11:12;4.83;;;4.43;;
8909;SDS011;4490;49.072;8.804;2023-03-24T07:13:39;5.83;;;4.60;;
8909;SDS011;4490;49.072;8.804;2023-03-24T07:16:05;5.73;;;4.67;;
8909;SDS011;4490;49.072;8.804;2023-03-24T07:18:31;4.93;;;4.43;;
8909;SDS011;4490;49.072;8.804;2023-03-24T07:20:57;5.13;;;4.63;;
8909;SDS011;4490;49.072;8.804;2023-03-24T07:23:23;6.53;;;4.23;;
8909;SDS011;4490;49.072;8.804;2023-03-24T07:25:51;4.90;;;3.90;;
8909;SDS011;4490;49.072;8.804;2023-03-24T07:28:17;4.23;;;3.93;;
8909;SDS011;4490;49.072;8.804;2023-03-24T07:30:43;4.83;;;4.30;;
8909;SDS011;4490;49.072;8.804;2023-03-24T07:33:09;6.83;;;4.40;;
8909;SDS011;4490;49.072;8.804;2023-03-24T07:35:36;4.37;;;3.97;;
8909;SDS011;4490;49.072;8.804;2023-03-24T07:38:02;5.07;;;4.10;;
8909;SDS011;4490;49.072;8.804;2023-03-24T07:40:29;4.03;;;3.43;;
8909;SDS011;4490;49.072;8.804;2023-03-24T07:42:57;6.73;;;4.10;;
8909;SDS011;4490;49.072;8.804;2023-03-24T07:45:24;3.87;;;3.57;;
8909;SDS011;4490;49.072;8.804;2023-03-24T07:47:50;4.37;;;3.40;;
8909;SDS011;4490;49.072;8.804;2023-03-24T07:50:15;3.67;;;3.37;;
8909;SDS011;4490;49.072;8.804;2023-03-24T07:52:42;4.20;;;3.83;;
8909;SDS011;4490;49.072;8.804;2023-03-24T07:55:12;4.00;;;3.47;;
8909;SDS011;4490;49.072;8.804;2023-03-24T07:57:41;4.23;;;3.57;;
8909;SDS011;4490;49.072;8.804;2023-03-24T08:00:10;4.87;;;3.47;;
8909;SDS011;4490;49.072;8.804;2023-03-24T08:02:41;5.00;;;3.40;;
8909;SDS011;4490;49.072;8.804;2023-03-24T08:05:08;3.30;;;3.10;;
8909;SDS011;4490;49.072;8.804;2023-03-24T08:07:37;2.83;;;2.60;;
8909;SDS011;4490;49.072;8.804;2023-03-24T08:10:06;3.03;;;2.73;;
8909;SDS011;4490;49.072;8.804;2023-03-24T08:12:33;2.57;;;2.37;;
8909;SDS011;4490;49.072;8.804;2023-03-24T08:14:59;2.70;;;2.50;;
8909;SDS011;4490;49.072;8.804;2023-03-24T08:17:24;2.30;;;2.10;;
8909;SDS011;4490;49.072;8.804;2023-03-24T08:19:50;2.60;;;2.40;;
8909;SDS011;4490;49.072;8.804;2023-03-24T08:22:15;2.20;;;1.97;;
8909;SDS011;4490;49.072;8.804;2023-03-24T08:24:41;2.20;;;2.07;;
8909;SDS011;4490;49.072;8.804;2023-03-24T08:27:06;1.90;;;1.80;;
8909;SDS011;4490;49.072;8.804;2023-03-24T08:29:33;2.20;;;2.00;;
8909;SDS011;4490;49.072;8.804;2023-03-24T08:31:59;2.00;;;1.90;;
8909;SDS011;4490;49.072;8.804;2023-03-24T08:34:25;2.03;;;1.93;;
8909;SDS011;4490;49.072;8.804;2023-03-24T08:36:51;2.17;;;1.97;;
8909;SDS011;4490;49.072;8.804;2023-03-24T08:39:17;2.47;;;2.00;;
8909;SDS011;4490;49.072;8.804;2023-03-24T08:41:42;2.73;;;2.10;;
8909;SDS011;4490;49.072;8.804;2023-03-24T08:44:10;2.37;;;2.03;;
8909;SDS011;4490;49.072;8.804;2023-03-24T08:46:36;2.03;;;1.93;;
8909;SDS011;4490;49.072;8.804;2023-03-24T08:49:02;2.00;;;1.90;;
8909;SDS011;4490;49.072;8.804;2023-03-24T08:51:28;3.93;;;2.00;;
8909;SDS011;4490;49.072;8.804;2023-03-24T08:53:54;1.97;;;1.80;;
8909;SDS011;4490;49.072;8.804;2023-03-24T08:56:20;3.03;;;1.87;;
8909;SDS011;4490;49.072;8.804;2023-03-24T08:58:46;2.10;;;1.80;;
8909;SDS011;4490;49.072;8.804;2023-03-24T09:01:13;2.00;;;1.80;;
8909;SDS011;4490;49.072;8.804;2023-03-24T09:03:38;2.23;;;2.13;;
8909;SDS011;4490;49.072;8.804;2023-03-24T09:06:05;2.50;;;1.80;;
8909;SDS011;4490;49.072;8.804;2023-03-24T09:08:31;1.90;;;1.80;;
8909;SDS011;4490;49.072;8.804;2023-03-24T09:10:57;1.70;;;1.60;;
8909;SDS011;4490;49.072;8.804;2023-03-24T09:13:22;1.63;;;1.53;;
8909;SDS011;4490;49.072;8.804;2023-03-24T09:15:52;1.70;;;1.60;;
8909;SDS011;4490;49.072;8.804;2023-03-24T09:18:22;1.87;;;1.70;;
8909;SDS011;4490;49.072;8.804;2023-03-24T09:20:48;1.40;;;1.40;;
8909;SDS011;4490;49.072;8.804;2023-03-24T09:23:14;1.60;;;1.50;;
8909;SDS011;4490;49.072;8.804;2023-03-24T09:25:40;2.13;;;1.60;;
8909;SDS011;4490;49.072;8.804;2023-03-24T09:28:06;1.50;;;1.40;;
8909;SDS011;4490;49.072;8.804;2023-03-24T09:30:33;1.60;;;1.50;;
8909;SDS011;4490;49.072;8.804;2023-03-24T09:32:58;1.70;;;1.60;;
8909;SDS011;4490;49.072;8.804;2023-03-24T09:35:25;1.80;;;1.40;;
8909;SDS011;4490;49.072;8.804;2023-03-24T09:37:51;1.60;;;1.50;;
8909;SDS011;4490;49.072;8.804;2023-03-24T09:40:25;2.17;;;1.40;;
8909;SDS011;4490;49.072;8.804;2023-03-24T09:42:57;1.50;;;1.40;;
8909;SDS011;4490;49.072;8.804;2023-03-24T09:45:27;1.47;;;1.40;;
8909;SDS011;4490;49.072;8.804;2023-03-24T09:50:26;1.80;;;1.60;;
8909;SDS011;4490;49.072;8.804;2023-03-24T09:52:58;1.50;;;1.40;;
8909;SDS011;4490;49.072;8.804;2023-03-24T09:55:31;1.87;;;1.47;;
8909;SDS011;4490;49.072;8.804;2023-03-24T09:58:00;1.67;;;1.57;;
8909;SDS011;4490;49.072;8.804;2023-03-24T10:00:30;1.50;;;1.40;;
8909;SDS011;4490;49.072;8.804;2023-03-24T10:02:58;2.90;;;1.60;;
8909;SDS011;4490;49.072;8.804;2023-03-24T10:05:40;1.67;;;1.57;;
8909;SDS011;4490;49.072;8.804;2023-03-24T10:08:36;1.33;;;1.30;;
8909;SDS011;4490;49.072;8.804;2023-03-24T10:21:35;1.20;;;1.13;;
8909;SDS011;4490;49.072;8.804;2023-03-24T10:24:13;1.37;;;1.27;;
8909;SDS011;4490;49.072;8.804;2023-03-24T10:31:56;2.27;;;1.27;;
8909;SDS011;4490;49.072;8.804;2023-03-24T10:34:25;2.67;;;1.40;;
8909;SDS011;4490;49.072;8.804;2023-03-24T10:36:54;2.60;;;1.20;;
8909;SDS011;4490;49.072;8.804;2023-03-24T10:39:22;2.90;;;1.10;;
8909;SDS011;4490;49.072;8.804;2023-03-24T10:41:47;1.37;;;1.27;;
8909;SDS011;4490;49.072;8.804;2023-03-24T10:44:14;2.50;;;1.30;;
8909;SDS011;4490;49.072;8.804;2023-03-24T10:47:01;1.10;;;1.10;;
8909;SDS011;4490;49.072;8.804;2023-03-24T10:49:28;1.13;;;1.13;;
8909;SDS011;4490;49.072;8.804;2023-03-24T10:51:58;1.00;;;1.00;;
8909;SDS011;4490;49.072;8.804;2023-03-24T10:54:28;1.10;;;1.10;;
8909;SDS011;4490;49.072;8.804;2023-03-24T11:02:01;2.03;;;1.20;;
8909;SDS011;4490;49.072;8.804;2023-03-24T11:04:38;1.10;;;1.10;;
8909;SDS011;4490;49.072;8.804;2023-03-24T11:09:42;1.90;;;1.30;;
8909;SDS011;4490;49.072;8.804;2023-03-24T11:12:26;1.33;;;1.23;;
8909;SDS011;4490;49.072;8.804;2023-03-24T11:15:00;1.50;;;1.27;;
8909;SDS011;4490;49.072;8.804;2023-03-24T11:17:45;1.40;;;1.30;;
8909;SDS011;4490;49.072;8.804;2023-03-24T11:20:31;1.50;;;1.40;;
8909;SDS011;4490;49.072;8.804;2023-03-24T11:23:06;1.20;;;1.13;;
8909;SDS011;4490;49.072;8.804;2023-03-24T11:25:37;1.30;;;1.20;;
8909;SDS011;4490;49.072;8.804;2023-03-24T11:28:06;1.27;;;1.17;;
8909;SDS011;4490;49.072;8.804;2023-03-24T11:30:51;1.50;;;1.30;;
8909;SDS011;4490;49.072;8.804;2023-03-24T11:33:22;1.30;;;1.20;;
8909;SDS011;4490;49.072;8.804;2023-03-24T11:35:52;1.43;;;1.33;;
8909;SDS011;4490;49.072;8.804;2023-03-24T11:38:19;1.63;;;1.20;;
8909;SDS011;4490;49.072;8.804;2023-03-24T11:40:57;1.60;;;1.40;;
8909;SDS011;4490;49.072;8.804;2023-03-24T11:43:26;1.40;;;1.30;;
8909;SDS011;4490;49.072;8.804;2023-03-24T11:45:55;1.43;;;1.33;;
8909;SDS011;4490;49.072;8.804;2023-03-24T11:48:50;1.10;;;1.10;;
8909;SDS011;4490;49.072;8.804;2023-03-24T11:51:31;1.23;;;1.20;;
8909;SDS011;4490;49.072;8.804;2023-03-24T11:54:01;1.80;;;1.40;;
8909;SDS011;4490;49.072;8.804;2023-03-24T12:01:34;1.00;;;0.90;;
8909;SDS011;4490;49.072;8.804;2023-03-24T12:09:30;2.40;;;1.40;;
8909;SDS011;4490;49.072;8.804;2023-03-24T12:23:30;2.50;;;1.27;;
8909;SDS011;4490;49.072;8.804;2023-03-24T12:45:57;1.93;;;1.50;;
8909;SDS011;4490;49.072;8.804;2023-03-24T12:48:37;2.23;;;1.43;;
8909;SDS011;4490;49.072;8.804;2023-03-24T12:56:46;4.53;;;1.97;;
8909;SDS011;4490;49.072;8.804;2023-03-24T12:59:18;3.17;;;1.73;;
8909;SDS011;4490;49.072;8.804;2023-03-24T13:01:45;5.37;;;1.77;;
8909;SDS011;4490;49.072;8.804;2023-03-24T13:12:02;4.97;;;1.90;;
8909;SDS011;4490;49.072;8.804;2023-03-24T13:14:37;5.47;;;1.90;;
8909;SDS011;4490;49.072;8.804;2023-03-24T13:20:26;4.33;;;1.60;;
8909;SDS011;4490;49.072;8.804;2023-03-24T13:22:56;3.07;;;1.60;;
8909;SDS011;4490;49.072;8.804;2023-03-24T13:25:54;7.27;;;2.20;;
8909;SDS011;4490;49.072;8.804;2023-03-24T13:32:01;5.17;;;1.40;;
8909;SDS011;4490;49.072;8.804;2023-03-24T13:34:39;3.17;;;1.80;;
8909;SDS011;4490;49.072;8.804;2023-03-24T13:37:15;3.37;;;1.70;;
8909;SDS011;4490;49.072;8.804;2023-03-24T13:39:49;3.13;;;1.70;;
8909;SDS011;4490;49.072;8.804;2023-03-24T13:42:28;5.13;;;1.80;;
8909;SDS011;4490;49.072;8.804;2023-03-24T13:45:01;3.27;;;1.87;;
8909;SDS011;4490;49.072;8.804;2023-03-24T13:47:46;3.03;;;1.70;;
8909;SDS011;4490;49.072;8.804;2023-03-24T13:50:12;5.67;;;1.93;;
8909;SDS011;4490;49.072;8.804;2023-03-24T13:52:39;4.50;;;1.60;;
8909;SDS011;4490;49.072;8.804;2023-03-24T13:55:14;4.33;;;1.70;;
8909;SDS011;4490;49.072;8.804;2023-03-24T13:58:03;5.17;;;1.60;;
8909;SDS011;4490;49.072;8.804;2023-03-24T14:01:03;5.07;;;1.70;;
8909;SDS011;4490;49.072;8.804;2023-03-24T14:03:30;4.97;;;2.00;;
8909;SDS011;4490;49.072;8.804;2023-03-24T14:05:58;4.40;;;1.80;;
8909;SDS011;4490;49.072;8.804;2023-03-24T14:16:43;7.03;;;2.00;;
8909;SDS011;4490;49.072;8.804;2023-03-24T14:22:23;5.00;;;1.33;;
8909;SDS011;4490;49.072;8.804;2023-03-24T14:25:01;5.97;;;1.93;;
8909;SDS011;4490;49.072;8.804;2023-03-24T14:27:45;3.40;;;1.63;;
8909;SDS011;4490;49.072;8.804;2023-03-24T14:32:45;3.87;;;2.00;;
8909;SDS011;4490;49.072;8.804;2023-03-24T14:35:29;5.07;;;1.93;;
8909;SDS011;4490;49.072;8.804;2023-03-24T14:40:44;4.00;;;1.80;;
8909;SDS011;4490;49.072;8.804;2023-03-24T14:43:21;6.40;;;2.23;;
8909;SDS011;4490;49.072;8.804;2023-03-24T14:46:01;4.47;;;2.20;;
8909;SDS011;4490;49.072;8.804;2023-03-24T14:49:05;3.83;;;1.80;;
8909;SDS011;4490;49.072;8.804;2023-03-24T14:54:28;2.80;;;1.90;;
8909;SDS011;4490;49.072;8.804;2023-03-24T14:56:54;2.90;;;1.63;;
8909;SDS011;4490;49.072;8.804;2023-03-24T15:05:14;2.70;;;1.80;;
8909;SDS011;4490;49.072;8.804;2023-03-24T15:08:12;4.83;;;1.80;;
8909;SDS011;4490;49.072;8.804;2023-03-24T15:18:42;4.67;;;2.03;;
8909;SDS011;4490;49.072;8.804;2023-03-24T15:21:22;3.17;;;1.70;;
8909;SDS011;4490;49.072;8.804;2023-03-24T15:23:54;1.83;;;1.60;;
8909;SDS011;4490;49.072;8.804;2023-03-24T15:26:21;1.87;;;1.43;;
8909;SDS011;4490;49.072;8.804;2023-03-24T15:28:55;1.90;;;1.40;;
8909;SDS011;4490;49.072;8.804;2023-03-24T15:31:30;2.07;;;1.40;;
8909;SDS011;4490;49.072;8.804;2023-03-24T15:34:03;1.97;;;1.30;;
8909;SDS011;4490;49.072;8.804;2023-03-24T15:36:37;2.00;;;1.20;;
8909;SDS011;4490;49.072;8.804;2023-03-24T15:39:17;1.63;;;1.30;;
8909;SDS011;4490;49.072;8.804;2023-03-24T15:41:44;2.27;;;1.40;;
8909;SDS011;4490;49.072;8.804;2023-03-24T15:44:15;1.83;;;1.30;;
8909;SDS011;4490;49.072;8.804;2023-03-24T15:46:48;2.33;;;1.20;;
8909;SDS011;4490;49.072;8.804;2023-03-24T15:49:48;2.27;;;1.63;;
8909;SDS011;4490;49.072;8.804;2023-03-24T15:52:23;2.07;;;1.20;;
8909;SDS011;4490;49.072;8.804;2023-03-24T15:55:01;2.00;;;1.20;;
8909;SDS011;4490;49.072;8.804;2023-03-24T15:57:48;2.30;;;1.50;;
8909;SDS011;4490;49.072;8.804;2023-03-24T16:00:16;1.77;;;1.10;;
8909;SDS011;4490;49.072;8.804;2023-03-24T16:02:48;4.57;;;1.50;;
8909;SDS011;4490;49.072;8.804;2023-03-24T16:07:52;2.53;;;1.10;;
8909;SDS011;4490;49.072;8.804;2023-03-24T16:10:59;3.33;;;1.50;;
8909;SDS011;4490;49.072;8.804;2023-03-24T16:13:28;1.80;;;1.30;;
8909;SDS011;4490;49.072;8.804;2023-03-24T16:15:56;1.63;;;1.30;;
8909;SDS011;4490;49.072;8.804;2023-03-24T16:18:32;1.60;;;1.50;;
8909;SDS011;4490;49.072;8.804;2023-03-24T16:20:59;1.67;;;1.30;;
8909;SDS011;4490;49.072;8.804;2023-03-24T16:23:26;2.63;;;1.40;;
8909;SDS011;4490;49.072;8.804;2023-03-24T16:25:52;2.13;;;1.63;;
8909;SDS011;4490;49.072;8.804;2023-03-24T16:28:19;2.10;;;1.60;;
8909;SDS011;4490;49.072;8.804;2023-03-24T16:30:48;4.23;;;1.50;;
8909;SDS011;4490;49.072;8.804;2023-03-24T16:33:21;3.03;;;2.00;;
8909;SDS011;4490;49.072;8.804;2023-03-24T16:35:47;2.67;;;1.60;;
8909;SDS011;4490;49.072;8.804;2023-03-24T16:38:12;1.80;;;1.20;;
8909;SDS011;4490;49.072;8.804;2023-03-24T16:40:47;1.77;;;1.30;;
8909;SDS011;4490;49.072;8.804;2023-03-24T16:43:15;1.80;;;1.13;;
8909;SDS011;4490;49.072;8.804;2023-03-24T16:45:43;3.23;;;1.50;;
8909;SDS011;4490;49.072;8.804;2023-03-24T16:48:13;1.43;;;1.33;;
8909;SDS011;4490;49.072;8.804;2023-03-24T16:50:44;1.57;;;1.40;;
8909;SDS011;4490;49.072;8.804;2023-03-24T16:53:10;1.77;;;1.23;;
8909;SDS011;4490;49.072;8.804;2023-03-24T16:55:37;1.57;;;1.40;;
8909;SDS011;4490;49.072;8.804;2023-03-24T16:58:05;1.77;;;1.40;;
8909;SDS011;4490;49.072;8.804;2023-03-24T17:00:32;3.30;;;1.50;;
8909;SDS011;4490;49.072;8.804;2023-03-24T17:03:01;3.50;;;1.20;;
8909;SDS011;4490;49.072;8.804;2023-03-24T17:05:29;1.47;;;1.30;;
8909;SDS011;4490;49.072;8.804;2023-03-24T17:07:59;1.57;;;1.40;;
8909;SDS011;4490;49.072;8.804;2023-03-24T17:10:25;1.70;;;1.30;;
8909;SDS011;4490;49.072;8.804;2023-03-24T17:12:51;1.67;;;1.33;;
8909;SDS011;4490;49.072;8.804;2023-03-24T17:15:20;1.87;;;1.40;;
8909;SDS011;4490;49.072;8.804;2023-03-24T17:17:50;2.43;;;1.50;;
8909;SDS011;4490;49.072;8.804;2023-03-24T17:20:16;1.97;;;1.50;;
8909;SDS011;4490;49.072;8.804;2023-03-24T17:22:44;1.07;;;0.97;;
8909;SDS011;4490;49.072;8.804;2023-03-24T17:25:11;2.17;;;1.40;;
8909;SDS011;4490;49.072;8.804;2023-03-24T17:27:38;1.50;;;1.20;;
8909;SDS011;4490;49.072;8.804;2023-03-24T17:30:05;1.30;;;1.20;;
8909;SDS011;4490;49.072;8.804;2023-03-24T17:32:31;1.33;;;1.23;;
8909;SDS011;4490;49.072;8.804;2023-03-24T17:34:58;1.70;;;1.37;;
8909;SDS011;4490;49.072;8.804;2023-03-24T17:37:26;1.63;;;1.23;;
8909;SDS011;4490;49.072;8.804;2023-03-24T17:39:53;1.43;;;1.33;;
8909;SDS011;4490;49.072;8.804;2023-03-24T17:42:22;1.37;;;1.27;;
8909;SDS011;4490;49.072;8.804;2023-03-24T17:44:50;1.50;;;1.40;;
8909;SDS011;4490;49.072;8.804;2023-03-24T17:47:16;2.03;;;1.40;;
8909;SDS011;4490;49.072;8.804;2023-03-24T17:49:42;1.80;;;1.50;;
8909;SDS011;4490;49.072;8.804;2023-03-24T17:52:08;3.57;;;1.47;;
8909;SDS011;4490;49.072;8.804;2023-03-24T17:54:34;2.60;;;1.50;;
8909;SDS011;4490;49.072;8.804;2023-03-24T17:57:00;2.73;;;1.50;;
8909;SDS011;4490;49.072;8.804;2023-03-24T17:59:26;3.20;;;1.50;;
8909;SDS011;4490;49.072;8.804;2023-03-24T18:01:51;1.70;;;1.47;;
8909;SDS011;4490;49.072;8.804;2023-03-24T18:04:17;3.13;;;1.70;;
8909;SDS011;4490;49.072;8.804;2023-03-24T18:06:44;3.43;;;1.30;;
8909;SDS011;4490;49.072;8.804;2023-03-24T18:09:11;1.97;;;1.57;;
8909;SDS011;4490;49.072;8.804;2023-03-24T18:11:37;2.40;;;2.20;;
8909;SDS011;4490;49.072;8.804;2023-03-24T18:14:03;3.13;;;2.10;;
8909;SDS011;4490;49.072;8.804;2023-03-24T18:16:29;5.57;;;3.40;;
8909;SDS011;4490;49.072;8.804;2023-03-24T18:18:55;12.13;;;7.77;;
8909;SDS011;4490;49.072;8.804;2023-03-24T18:21:21;6.00;;;4.53;;
8909;SDS011;4490;49.072;8.804;2023-03-24T18:23:48;10.30;;;4.83;;
8909;SDS011;4490;49.072;8.804;2023-03-24T18:26:15;4.60;;;3.90;;
8909;SDS011;4490;49.072;8.804;2023-03-24T18:28:41;5.20;;;4.10;;
8909;SDS011;4490;49.072;8.804;2023-03-24T18:33:40;5.37;;;3.90;;
8909;SDS011;4490;49.072;8.804;2023-03-24T18:36:07;6.50;;;4.20;;
8909;SDS011;4490;49.072;8.804;2023-03-24T18:38:37;3.40;;;2.90;;